Time,TemperatureF,DewpointF,PressureIn,WindDirection,WindDirectionDegrees,WindSpeedMPH,WindSpeedGustMPH,Humidity,HourlyPrecipIn,Conditions,Clouds,dailyrainin,SolarRadiationWatts/m^2,SoftwareType,DateUTC
2013-06-14 00:02:00,77.0,72.0,-100.00,WSW,237,0.0,3.0,85,0.00,,,0.00,0.000000,,2013-06-14 05:02:00,
2013-06-14 00:34:00,77.0,72.0,-100.00,SW,233,1.0,5.0,84,0.00,,,0.00,0.000000,,2013-06-14 05:34:00,
2013-06-14 00:43:00,77.0,72.0,-100.00,SW,233,1.0,5.0,84,0.00,,,0.00,0.000000,,2013-06-14 05:43:00,
2013-06-14 00:52:00,77.0,72.0,-100.00,SW,233,1.0,5.0,84,0.00,,,0.00,0.000000,,2013-06-14 05:52:00,
2013-06-14 01:02:00,77.0,72.0,-100.00,SW,233,1.0,5.0,84,0.00,,,0.00,0.000000,,2013-06-14 06:02:00,
2013-06-14 01:33:00,76.0,72.0,-100.00,South,185,0.0,5.0,86,0.00,,,0.00,0.000000,,2013-06-14 06:33:00,
2013-06-14 01:43:00,76.0,72.0,-100.00,South,185,0.0,5.0,86,0.00,,,0.00,0.000000,,2013-06-14 06:43:00,
2013-06-14 01:52:00,76.0,72.0,-100.00,South,185,0.0,5.0,86,0.00,,,0.00,0.000000,,2013-06-14 06:52:00,
2013-06-14 02:02:00,76.0,72.0,-100.00,South,185,0.0,5.0,86,0.00,,,0.00,0.000000,,2013-06-14 07:02:00,
2013-06-14 02:33:00,76.0,72.0,-100.00,SW,214,2.0,5.0,87,0.00,,,0.00,0.000000,,2013-06-14 07:33:00,
2013-06-14 02:43:00,76.0,72.0,-100.00,SW,214,2.0,5.0,87,0.00,,,0.00,0.000000,,2013-06-14 07:43:00,
2013-06-14 02:53:00,76.0,72.0,-100.00,SW,214,2.0,5.0,87,0.00,,,0.00,0.000000,,2013-06-14 07:53:00,
2013-06-14 03:02:00,76.0,72.0,-100.00,SW,214,2.0,5.0,87,0.00,,,0.00,0.000000,,2013-06-14 08:02:00,
2013-06-14 03:33:00,77.0,72.0,-100.00,SW,230,2.0,7.0,85,0.00,,,0.00,0.000000,,2013-06-14 08:33:00,
2013-06-14 03:43:00,77.0,72.0,-100.00,SW,230,2.0,7.0,85,0.00,,,0.00,0.000000,,2013-06-14 08:43:00,
2013-06-14 03:53:00,77.0,72.0,-100.00,SW,230,2.0,7.0,85,0.00,,,0.00,0.000000,,2013-06-14 08:53:00,
2013-06-14 04:02:00,77.0,72.0,-100.00,SW,230,2.0,7.0,85,0.00,,,0.00,0.000000,,2013-06-14 09:02:00,
2013-06-14 04:33:00,75.0,73.0,-100.00,West,266,3.0,10.0,92,0.28,,,0.28,0.000000,,2013-06-14 09:33:00,
2013-06-14 04:43:00,75.0,73.0,-100.00,West,266,3.0,10.0,92,0.28,,,0.28,0.000000,,2013-06-14 09:43:00,
2013-06-14 04:53:00,75.0,73.0,-100.00,West,266,3.0,10.0,92,0.28,,,0.28,0.000000,,2013-06-14 09:53:00,
2013-06-14 05:01:00,75.0,73.0,-100.00,West,266,3.0,10.0,92,0.28,,,0.28,0.000000,,2013-06-14 10:01:00,
2013-06-14 05:34:00,73.0,71.0,-100.00,WSW,240,0.0,5.0,94,0.02,,,0.30,0.000000,,2013-06-14 10:34:00,
2013-06-14 05:44:00,73.0,71.0,-100.00,WSW,240,0.0,5.0,94,0.02,,,0.30,0.000000,,2013-06-14 10:44:00,
2013-06-14 05:53:00,73.0,71.0,-100.00,WSW,240,0.0,5.0,94,0.02,,,0.30,0.000000,,2013-06-14 10:53:00,
2013-06-14 06:02:00,73.0,71.0,-100.00,WSW,240,0.0,5.0,94,0.02,,,0.30,0.000000,,2013-06-14 11:02:00,
2013-06-14 06:33:00,73.0,71.0,-100.00,NNE,25,1.0,3.0,94,0.00,,,0.30,2.000000,,2013-06-14 11:33:00,
2013-06-14 06:43:00,73.0,71.0,-100.00,NNE,25,1.0,3.0,94,0.00,,,0.30,2.000000,,2013-06-14 11:43:00,
2013-06-14 06:52:00,73.0,71.0,-100.00,NNE,25,1.0,3.0,94,0.00,,,0.30,2.000000,,2013-06-14 11:52:00,
2013-06-14 07:02:00,73.0,71.0,-100.00,NNE,25,1.0,3.0,94,0.00,,,0.30,2.000000,,2013-06-14 12:02:00,
2013-06-14 07:33:00,75.0,73.0,-100.00,WNW,285,0.0,3.0,94,0.00,,,0.30,29.000000,,2013-06-14 12:33:00,
2013-06-14 07:43:00,75.0,73.0,-100.00,WNW,285,0.0,3.0,94,0.00,,,0.30,29.000000,,2013-06-14 12:43:00,
2013-06-14 07:52:00,75.0,73.0,-100.00,WNW,285,0.0,3.0,94,0.00,,,0.30,29.000000,,2013-06-14 12:52:00,
2013-06-14 08:02:00,75.0,73.0,-100.00,WNW,285,0.0,3.0,94,0.00,,,0.30,29.000000,,2013-06-14 13:02:00,
2013-06-14 08:33:00,80.0,75.0,-100.00,NE,46,4.0,7.0,84,0.00,,,0.30,175.000000,,2013-06-14 13:33:00,
2013-06-14 08:43:00,80.0,75.0,-100.00,NE,46,4.0,7.0,84,0.00,,,0.30,175.000000,,2013-06-14 13:43:00,
2013-06-14 08:53:00,80.0,75.0,-100.00,NE,46,4.0,7.0,84,0.00,,,0.30,175.000000,,2013-06-14 13:53:00,
2013-06-14 09:02:00,80.0,75.0,-100.00,NE,46,4.0,7.0,84,0.00,,,0.30,175.000000,,2013-06-14 14:02:00,
2013-06-14 09:34:00,80.0,73.0,-100.00,NE,40,4.0,9.0,80,0.00,,,0.30,251.000000,,2013-06-14 14:34:00,
2013-06-14 09:43:00,80.0,73.0,-100.00,NE,40,4.0,9.0,80,0.00,,,0.30,251.000000,,2013-06-14 14:43:00,
2013-06-14 09:52:00,80.0,73.0,-100.00,NE,40,4.0,9.0,80,0.00,,,0.30,251.000000,,2013-06-14 14:52:00,
2013-06-14 10:01:00,80.0,73.0,-100.00,NE,40,4.0,9.0,80,0.00,,,0.30,251.000000,,2013-06-14 15:01:00,
2013-06-14 10:33:00,84.0,73.0,-100.00,NNE,29,4.0,9.0,69,0.00,,,0.30,505.000000,,2013-06-14 15:33:00,
2013-06-14 10:44:00,84.0,73.0,-100.00,NNE,29,4.0,9.0,69,0.00,,,0.30,505.000000,,2013-06-14 15:44:00,
2013-06-14 10:53:00,84.0,73.0,-100.00,NNE,29,4.0,9.0,69,0.00,,,0.30,505.000000,,2013-06-14 15:53:00,
2013-06-14 11:01:00,84.0,73.0,-100.00,NNE,29,4.0,9.0,69,0.00,,,0.30,505.000000,,2013-06-14 16:01:00,
2013-06-14 11:33:00,86.0,74.0,-100.00,North,11,4.0,10.0,67,0.00,,,0.30,663.000000,,2013-06-14 16:33:00,
2013-06-14 11:43:00,86.0,74.0,-100.00,North,11,4.0,10.0,67,0.00,,,0.30,663.000000,,2013-06-14 16:43:00,
2013-06-14 11:53:00,86.0,74.0,-100.00,North,11,4.0,10.0,67,0.00,,,0.30,663.000000,,2013-06-14 16:53:00,
2013-06-14 12:02:00,86.0,74.0,-100.00,North,11,4.0,10.0,67,0.00,,,0.30,663.000000,,2013-06-14 17:02:00,
2013-06-14 12:34:00,88.0,73.0,-100.00,North,360,4.0,11.0,62,0.00,,,0.30,759.000000,,2013-06-14 17:34:00,
2013-06-14 12:43:00,88.0,73.0,-100.00,North,360,4.0,11.0,62,0.00,,,0.30,759.000000,,2013-06-14 17:43:00,
2013-06-14 12:53:00,88.0,73.0,-100.00,North,360,4.0,11.0,62,0.00,,,0.30,759.000000,,2013-06-14 17:53:00,
2013-06-14 13:02:00,88.0,73.0,-100.00,North,360,4.0,11.0,62,0.00,,,0.30,759.000000,,2013-06-14 18:02:00,
2013-06-14 13:33:00,89.0,73.0,-100.00,North,5,5.0,11.0,60,0.00,,,0.30,763.000000,,2013-06-14 18:33:00,
2013-06-14 13:43:00,89.0,73.0,-100.00,North,5,5.0,11.0,60,0.00,,,0.30,763.000000,,2013-06-14 18:43:00,
2013-06-14 13:52:00,89.0,73.0,-100.00,North,5,5.0,11.0,60,0.00,,,0.30,763.000000,,2013-06-14 18:52:00,
2013-06-14 14:01:00,89.0,73.0,-100.00,North,5,5.0,11.0,60,0.00,,,0.30,763.000000,,2013-06-14 19:01:00,
2013-06-14 14:33:00,90.0,72.0,-100.00,NNE,24,6.0,12.0,56,0.00,,,0.30,828.000000,,2013-06-14 19:33:00,
2013-06-14 14:43:00,90.0,72.0,-100.00,NNE,24,6.0,12.0,56,0.00,,,0.30,828.000000,,2013-06-14 19:43:00,
2013-06-14 14:53:00,90.0,72.0,-100.00,NNE,24,6.0,12.0,56,0.00,,,0.30,828.000000,,2013-06-14 19:53:00,
2013-06-14 15:02:00,90.0,72.0,-100.00,NNE,24,6.0,12.0,56,0.00,,,0.30,828.000000,,2013-06-14 20:02:00,
2013-06-14 15:33:00,91.0,71.0,-100.00,NNE,24,5.0,11.0,52,0.00,,,0.30,765.000000,,2013-06-14 20:33:00,
2013-06-14 15:43:00,91.0,71.0,-100.00,NNE,24,5.0,11.0,52,0.00,,,0.30,765.000000,,2013-06-14 20:43:00,
2013-06-14 15:53:00,91.0,71.0,-100.00,NNE,24,5.0,11.0,52,0.00,,,0.30,765.000000,,2013-06-14 20:53:00,
2013-06-14 16:02:00,91.0,71.0,-100.00,NNE,24,5.0,11.0,52,0.00,,,0.30,765.000000,,2013-06-14 21:02:00,
2013-06-14 16:34:00,90.0,68.0,-100.00,North,5,5.0,12.0,48,0.00,,,0.30,677.000000,,2013-06-14 21:34:00,
2013-06-14 16:43:00,90.0,68.0,-100.00,North,5,5.0,12.0,48,0.00,,,0.30,677.000000,,2013-06-14 21:43:00,
2013-06-14 16:52:00,90.0,68.0,-100.00,North,5,5.0,12.0,48,0.00,,,0.30,677.000000,,2013-06-14 21:52:00,
2013-06-14 17:01:00,90.0,68.0,-100.00,North,5,5.0,12.0,48,0.00,,,0.30,677.000000,,2013-06-14 22:01:00,
2013-06-14 17:33:00,90.0,68.0,-100.00,NNE,23,4.0,11.0,48,0.00,,,0.30,457.000000,,2013-06-14 22:33:00,
2013-06-14 17:43:00,90.0,68.0,-100.00,NNE,23,4.0,11.0,48,0.00,,,0.30,457.000000,,2013-06-14 22:43:00,
2013-06-14 17:53:00,90.0,68.0,-100.00,NNE,23,4.0,11.0,48,0.00,,,0.30,457.000000,,2013-06-14 22:53:00,
2013-06-14 18:02:00,90.0,68.0,-100.00,NNE,23,4.0,11.0,48,0.00,,,0.30,457.000000,,2013-06-14 23:02:00,
2013-06-14 18:33:00,87.0,67.0,-100.00,NNE,19,4.0,10.0,52,0.00,,,0.30,276.000000,,2013-06-14 23:33:00,
2013-06-14 18:43:00,87.0,67.0,-100.00,NNE,19,4.0,10.0,52,0.00,,,0.30,276.000000,,2013-06-14 23:43:00,
2013-06-14 18:52:00,87.0,67.0,-100.00,NNE,19,4.0,10.0,52,0.00,,,0.30,276.000000,,2013-06-14 23:52:00,
2013-06-14 19:01:00,87.0,67.0,-100.00,NNE,19,4.0,10.0,52,0.00,,,0.30,276.000000,,2013-06-15 00:01:00,
2013-06-14 19:34:00,83.0,67.0,-100.00,NE,52,3.0,10.0,58,0.00,,,0.30,151.000000,,2013-06-15 00:34:00,
2013-06-14 19:43:00,83.0,67.0,-100.00,NE,52,3.0,10.0,58,0.00,,,0.30,151.000000,,2013-06-15 00:43:00,
2013-06-14 19:53:00,83.0,67.0,-100.00,NE,52,3.0,10.0,58,0.00,,,0.30,151.000000,,2013-06-15 00:53:00,
2013-06-14 20:01:00,83.0,67.0,-100.00,NE,52,3.0,10.0,58,0.00,,,0.30,151.000000,,2013-06-15 01:01:00,
2013-06-14 20:33:00,78.0,68.0,-100.00,ENE,75,0.0,5.0,72,0.00,,,0.30,14.000000,,2013-06-15 01:33:00,
2013-06-14 20:43:00,78.0,68.0,-100.00,ENE,75,0.0,5.0,72,0.00,,,0.30,14.000000,,2013-06-15 01:43:00,
2013-06-14 20:54:00,78.0,68.0,-100.00,ENE,75,0.0,5.0,72,0.00,,,0.30,14.000000,,2013-06-15 01:54:00,
2013-06-14 21:02:00,78.0,68.0,-100.00,ENE,75,0.0,5.0,72,0.00,,,0.30,14.000000,,2013-06-15 02:02:00,
2013-06-14 21:34:00,74.0,68.0,-100.00,North,4,0.0,3.0,81,0.00,,,0.30,1.000000,,2013-06-15 02:34:00,
2013-06-14 21:43:00,74.0,68.0,-100.00,North,4,0.0,3.0,81,0.00,,,0.30,1.000000,,2013-06-15 02:43:00,
2013-06-14 21:53:00,74.0,68.0,-100.00,North,4,0.0,3.0,81,0.00,,,0.30,1.000000,,2013-06-15 02:53:00,
2013-06-14 22:01:00,74.0,68.0,-100.00,North,4,0.0,3.0,81,0.00,,,0.30,1.000000,,2013-06-15 03:01:00,
2013-06-14 22:33:00,72.0,67.0,-100.00,NE,51,0.0,2.0,84,0.00,,,0.30,0.000000,,2013-06-15 03:33:00,
2013-06-14 22:44:00,72.0,67.0,-100.00,NE,51,0.0,2.0,84,0.00,,,0.30,0.000000,,2013-06-15 03:44:00,
2013-06-14 22:53:00,72.0,67.0,-100.00,NE,51,0.0,2.0,84,0.00,,,0.30,0.000000,,2013-06-15 03:53:00,
2013-06-14 23:02:00,72.0,67.0,-100.00,NE,51,0.0,2.0,84,0.00,,,0.30,0.000000,,2013-06-15 04:02:00,
2013-06-14 23:34:00,71.0,66.0,-100.00,ENE,68,2.0,3.0,84,0.00,,,0.30,0.000000,,2013-06-15 04:34:00,
2013-06-14 23:43:00,71.0,66.0,-100.00,ENE,68,2.0,3.0,84,0.00,,,0.30,0.000000,,2013-06-15 04:43:00,
2013-06-14 23:54:00,71.0,66.0,-100.00,ENE,68,2.0,3.0,84,0.00,,,0.30,0.000000,,2013-06-15 04:54:00,